Time;durP1;ratioP1;P1;durP2;ratioP2;P2;SDS_P1;SDS_P2;PMS_P1;PMS_P2;Temp;Humidity;BMP_temperature;BMP_pressure;BME280_temperature;BME280_humidity;BME280_pressure;Samples;Min_cycle;Max_cycle;Signal;HPM_P1;HPM_P2
2019/08/22 00:00:48;;;;;;;2.75;2.4;;;;;;;13.47;100;96119.62;;;;
2019/08/22 00:01:58;;;;;;;2.75;2.4;;;;;;;13.47;100;96119.62;;;;
2019/08/22 00:03:02;;;;;;;2.75;2.4;;;;;;;13.47;100;96119.62;;;;
2019/08/22 00:04:09;;;;;;;2.75;2.4;;;;;;;13.47;100;96119.62;;;;
2019/08/22 00:05:12;;;;;;;2.75;2.4;;;;;;;13.47;100;96119.62;;;;
2019/08/22 00:06:15;;;;;;;2.75;2.4;;;;;;;13.47;100;96119.62;;;;
2019/08/22 00:07:18;;;;;;;2.75;2.4;;;;;;;13.47;100;96119.62;;;;
2019/08/22 00:08:21;;;;;;;2.75;2.4;;;;;;;13.47;100;96119.62;;;;
2019/08/22 00:09:23;;;;;;;2.75;2.4;;;;;;;13.47;100;96119.62;;;;
2019/08/22 00:10:25;;;;;;;2.75;2.4;;;;;;;13.47;100;96119.62;;;;
2019/08/22 00:11:28;;;;;;;2.8;2.6;;;;;;;13.31;100;96100.93;;;;
2019/08/22 00:12:30;;;;;;;2.8;2.6;;;;;;;13.31;100;96100.93;;;;
2019/08/22 00:13:33;;;;;;;2.8;2.6;;;;;;;13.31;100;96100.93;;;;
2019/08/22 00:14:35;;;;;;;2.8;2.6;;;;;;;13.31;100;96100.93;;;;
2019/08/22 00:15:39;;;;;;;2.8;2.6;;;;;;;13.31;100;96100.93;;;;
2019/08/22 00:16:43;;;;;;;2.8;2.6;;;;;;;13.31;100;96100.93;;;;
2019/08/22 00:17:46;;;;;;;2.8;2.6;;;;;;;13.31;100;96100.93;;;;
2019/08/22 00:18:48;;;;;;;2.8;2.6;;;;;;;13.31;100;96100.93;;;;
2019/08/22 00:19:51;;;;;;;2.8;2.6;;;;;;;13.31;100;96100.93;;;;
2019/08/22 00:20:54;;;;;;;2.8;2.6;;;;;;;13.31;100;96100.93;;;;
2019/08/22 00:21:56;;;;;;;3.1;2.65;;;;;;;13.24;100;96076.19;;;;
2019/08/22 00:22:58;;;;;;;3.1;2.65;;;;;;;13.24;100;96076.19;;;;
2019/08/22 00:24:01;;;;;;;3.1;2.65;;;;;;;13.24;100;96076.19;;;;
2019/08/22 00:25:07;;;;;;;3.1;2.65;;;;;;;13.24;100;96076.19;;;;
2019/08/22 00:26:13;;;;;;;3.1;2.65;;;;;;;13.24;100;96076.19;;;;
2019/08/22 00:27:16;;;;;;;3.1;2.65;;;;;;;13.24;100;96076.19;;;;
2019/08/22 00:28:18;;;;;;;3.1;2.65;;;;;;;13.24;100;96076.19;;;;
2019/08/22 00:29:21;;;;;;;3.1;2.65;;;;;;;13.24;100;96076.19;;;;
2019/08/22 00:30:23;;;;;;;3.1;2.65;;;;;;;13.24;100;96076.19;;;;
2019/08/22 00:31:33;;;;;;;3.1;2.65;;;;;;;13.24;100;96076.19;;;;
2019/08/22 00:32:35;;;;;;;3.45;2.85;;;;;;;13.19;100;96059.8;;;;
2019/08/22 00:33:38;;;;;;;3.45;2.85;;;;;;;13.19;100;96059.8;;;;
2019/08/22 00:34:41;;;;;;;3.45;2.85;;;;;;;13.19;100;96059.8;;;;
2019/08/22 00:35:45;;;;;;;3.45;2.85;;;;;;;13.19;100;96059.8;;;;
2019/08/22 00:36:46;;;;;;;3.45;2.85;;;;;;;13.19;100;96059.8;;;;
2019/08/22 00:37:49;;;;;;;3.45;2.85;;;;;;;13.19;100;96059.8;;;;
2019/08/22 00:38:52;;;;;;;3.45;2.85;;;;;;;13.19;100;96059.8;;;;
2019/08/22 00:39:55;;;;;;;3.45;2.85;;;;;;;13.19;100;96059.8;;;;
2019/08/22 00:41:00;;;;;;;3.45;2.85;;;;;;;13.19;100;96059.8;;;;
2019/08/22 00:42:04;;;;;;;3.45;2.85;;;;;;;13.19;100;96059.8;;;;
2019/08/22 00:43:08;;;;;;;3.4;2.9;;;;;;;13.2;100;96074.19;;;;
2019/08/22 00:44:11;;;;;;;3.4;2.9;;;;;;;13.2;100;96074.19;;;;
2019/08/22 00:45:15;;;;;;;3.4;2.9;;;;;;;13.2;100;96074.19;;;;
2019/08/22 00:46:19;;;;;;;3.4;2.9;;;;;;;13.2;100;96074.19;;;;
2019/08/22 00:47:21;;;;;;;3.4;2.9;;;;;;;13.2;100;96074.19;;;;
2019/08/22 00:48:24;;;;;;;3.4;2.9;;;;;;;13.2;100;96074.19;;;;
2019/08/22 00:49:26;;;;;;;3.4;2.9;;;;;;;13.2;100;96074.19;;;;
2019/08/22 00:50:29;;;;;;;3.4;2.9;;;;;;;13.2;100;96074.19;;;;
2019/08/22 00:51:32;;;;;;;3.4;2.9;;;;;;;13.2;100;96074.19;;;;
2019/08/22 00:52:34;;;;;;;3.4;2.9;;;;;;;13.2;100;96074.19;;;;
2019/08/22 00:53:38;;;;;;;3.3;3;;;;;;;13.13;100;96080.25;;;;
2019/08/22 00:54:40;;;;;;;3.3;3;;;;;;;13.13;100;96080.25;;;;
2019/08/22 00:55:42;;;;;;;3.3;3;;;;;;;13.13;100;96080.25;;;;
2019/08/22 00:57:05;;;;;;;3.3;3;;;;;;;13.13;100;96080.25;;;;
2019/08/22 00:58:16;;;;;;;3.3;3;;;;;;;13.13;100;96080.25;;;;
2019/08/22 00:59:18;;;;;;;3.3;3;;;;;;;13.13;100;96080.25;;;;
2019/08/22 01:00:20;;;;;;;3.3;3;;;;;;;13.13;100;96080.25;;;;
2019/08/22 01:01:29;;;;;;;3.3;3;;;;;;;13.13;100;96080.25;;;;
2019/08/22 01:02:34;;;;;;;3.3;3;;;;;;;13.13;100;96080.25;;;;
2019/08/22 01:03:36;;;;;;;3.3;3;;;;;;;13.13;100;96080.25;;;;
2019/08/22 01:04:39;;;;;;;3.15;2.7;;;;;;;13.11;100;96071.94;;;;
2019/08/22 01:05:41;;;;;;;3.15;2.7;;;;;;;13.11;100;96071.94;;;;
2019/08/22 01:06:44;;;;;;;3.15;2.7;;;;;;;13.11;100;96071.94;;;;
2019/08/22 01:07:47;;;;;;;3.15;2.7;;;;;;;13.11;100;96071.94;;;;
2019/08/22 01:08:50;;;;;;;3.15;2.7;;;;;;;13.11;100;96071.94;;;;
2019/08/22 01:09:53;;;;;;;3.15;2.7;;;;;;;13.11;100;96071.94;;;;
2019/08/22 01:10:57;;;;;;;3.15;2.7;;;;;;;13.11;100;96071.94;;;;
2019/08/22 01:12:02;;;;;;;3.15;2.7;;;;;;;13.11;100;96071.94;;;;
2019/08/22 01:13:05;;;;;;;3.15;2.7;;;;;;;13.11;100;96071.94;;;;
2019/08/22 01:14:09;;;;;;;3.15;2.7;;;;;;;13.11;100;96071.94;;;;
2019/08/22 01:15:11;;;;;;;5.050001;3.35;;;;;;;12.99;100;96066.44;;;;
2019/08/22 01:16:14;;;;;;;5.050001;3.35;;;;;;;12.99;100;96066.44;;;;
2019/08/22 01:17:17;;;;;;;5.050001;3.35;;;;;;;12.99;100;96066.44;;;;
2019/08/22 01:18:20;;;;;;;5.050001;3.35;;;;;;;12.99;100;96066.44;;;;
2019/08/22 01:19:22;;;;;;;5.050001;3.35;;;;;;;12.99;100;96066.44;;;;
2019/08/22 01:20:24;;;;;;;5.050001;3.35;;;;;;;12.99;100;96066.44;;;;
2019/08/22 01:21:27;;;;;;;5.050001;3.35;;;;;;;12.99;100;96066.44;;;;
2019/08/22 01:22:30;;;;;;;5.050001;3.35;;;;;;;12.99;100;96066.44;;;;
2019/08/22 01:23:32;;;;;;;5.050001;3.35;;;;;;;12.99;100;96066.44;;;;
2019/08/22 01:24:35;;;;;;;5.050001;3.35;;;;;;;12.99;100;96066.44;;;;
2019/08/22 01:25:38;;;;;;;4;3.1;;;;;;;12.93;100;96064.77;;;;
2019/08/22 01:26:40;;;;;;;4;3.1;;;;;;;12.93;100;96064.77;;;;
2019/08/22 01:27:43;;;;;;;4;3.1;;;;;;;12.93;100;96064.77;;;;
2019/08/22 01:28:44;;;;;;;4;3.1;;;;;;;12.93;100;96064.77;;;;
2019/08/22 01:29:47;;;;;;;4;3.1;;;;;;;12.93;100;96064.77;;;;
2019/08/22 01:30:50;;;;;;;4;3.1;;;;;;;12.93;100;96064.77;;;;
2019/08/22 01:32:04;;;;;;;4;3.1;;;;;;;12.93;100;96064.77;;;;
2019/08/22 01:33:18;;;;;;;4;3.1;;;;;;;12.93;100;96064.77;;;;
2019/08/22 01:34:21;;;;;;;4;3.1;;;;;;;12.93;100;96064.77;;;;
2019/08/22 01:35:23;;;;;;;4;3.1;;;;;;;12.93;100;96064.77;;;;
2019/08/22 01:36:26;;;;;;;3.5;3.2;;;;;;;12.8;100;96067.56;;;;
2019/08/22 01:37:29;;;;;;;3.5;3.2;;;;;;;12.8;100;96067.56;;;;
2019/08/22 01:38:31;;;;;;;3.5;3.2;;;;;;;12.8;100;96067.56;;;;
2019/08/22 01:39:34;;;;;;;3.5;3.2;;;;;;;12.8;100;96067.56;;;;
2019/08/22 01:40:41;;;;;;;3.5;3.2;;;;;;;12.8;100;96067.56;;;;
2019/08/22 01:41:43;;;;;;;3.5;3.2;;;;;;;12.8;100;96067.56;;;;
2019/08/22 01:42:45;;;;;;;3.5;3.2;;;;;;;12.8;100;96067.56;;;;
2019/08/22 01:43:48;;;;;;;3.5;3.2;;;;;;;12.8;100;96067.56;;;;
2019/08/22 01:44:52;;;;;;;3.5;3.2;;;;;;;12.8;100;96067.56;;;;
2019/08/22 01:45:54;;;;;;;3.5;3.2;;;;;;;12.8;100;96067.56;;;;
2019/08/22 01:46:56;;;;;;;3.4;3.1;;;;;;;12.76;100;96073.14;;;;
2019/08/22 01:47:58;;;;;;;3.4;3.1;;;;;;;12.76;100;96073.14;;;;
2019/08/22 01:49:00;;;;;;;3.4;3.1;;;;;;;12.76;100;96073.14;;;;
2019/08/22 01:50:04;;;;;;;3.4;3.1;;;;;;;12.76;100;96073.14;;;;
2019/08/22 01:51:09;;;;;;;3.4;3.1;;;;;;;12.76;100;96073.14;;;;
2019/08/22 01:52:11;;;;;;;3.4;3.1;;;;;;;12.76;100;96073.14;;;;
2019/08/22 01:53:13;;;;;;;3.4;3.1;;;;;;;12.76;100;96073.14;;;;
2019/08/22 01:54:17;;;;;;;3.4;3.1;;;;;;;12.76;100;96073.14;;;;
2019/08/22 01:55:20;;;;;;;3.4;3.1;;;;;;;12.76;100;96073.14;;;;
2019/08/22 01:56:32;;;;;;;3.4;3.1;;;;;;;12.76;100;96073.14;;;;
2019/08/22 01:57:36;;;;;;;3.6;3.05;;;;;;;12.66;100;96052.66;;;;
2019/08/22 01:58:39;;;;;;;3.6;3.05;;;;;;;12.66;100;96052.66;;;;
2019/08/22 01:59:43;;;;;;;3.6;3.05;;;;;;;12.66;100;96052.66;;;;
2019/08/22 02:00:46;;;;;;;3.6;3.05;;;;;;;12.66;100;96052.66;;;;
2019/08/22 02:01:52;;;;;;;3.6;3.05;;;;;;;12.66;100;96052.66;;;;
2019/08/22 02:02:56;;;;;;;3.6;3.05;;;;;;;12.66;100;96052.66;;;;
2019/08/22 02:04:00;;;;;;;3.6;3.05;;;;;;;12.66;100;96052.66;;;;
2019/08/22 02:05:05;;;;;;;3.6;3.05;;;;;;;12.66;100;96052.66;;;;
2019/08/22 02:06:09;;;;;;;3.6;3.05;;;;;;;12.66;100;96052.66;;;;
2019/08/22 02:07:12;;;;;;;3.6;3.05;;;;;;;12.66;100;96052.66;;;;
2019/08/22 02:08:14;;;;;;;3.9;3.5;;;;;;;12.59;100;96059.53;;;;
2019/08/22 02:09:16;;;;;;;3.9;3.5;;;;;;;12.59;100;96059.53;;;;
2019/08/22 02:10:43;;;;;;;3.9;3.5;;;;;;;12.59;100;96059.53;;;;
2019/08/22 02:11:49;;;;;;;3.9;3.5;;;;;;;12.59;100;96059.53;;;;
2019/08/22 02:12:52;;;;;;;3.9;3.5;;;;;;;12.59;100;96059.53;;;;
2019/08/22 02:13:55;;;;;;;3.9;3.5;;;;;;;12.59;100;96059.53;;;;
2019/08/22 02:14:58;;;;;;;3.9;3.5;;;;;;;12.59;100;96059.53;;;;
2019/08/22 02:16:01;;;;;;;3.9;3.5;;;;;;;12.59;100;96059.53;;;;
2019/08/22 02:17:07;;;;;;;3.9;3.5;;;;;;;12.59;100;96059.53;;;;
2019/08/22 02:18:12;;;;;;;3.2;2.95;;;;;;;12.44;100;96048.27;;;;
2019/08/22 02:19:16;;;;;;;3.2;2.95;;;;;;;12.44;100;96048.27;;;;
2019/08/22 02:20:18;;;;;;;3.2;2.95;;;;;;;12.44;100;96048.27;;;;
2019/08/22 02:21:22;;;;;;;3.2;2.95;;;;;;;12.44;100;96048.27;;;;
2019/08/22 02:22:25;;;;;;;3.2;2.95;;;;;;;12.44;100;96048.27;;;;
2019/08/22 02:23:28;;;;;;;3.2;2.95;;;;;;;12.44;100;96048.27;;;;
2019/08/22 02:24:30;;;;;;;3.2;2.95;;;;;;;12.44;100;96048.27;;;;
2019/08/22 02:25:32;;;;;;;3.2;2.95;;;;;;;12.44;100;96048.27;;;;
2019/08/22 02:26:40;;;;;;;3.2;2.95;;;;;;;12.44;100;96048.27;;;;
2019/08/22 02:27:42;;;;;;;3.2;2.95;;;;;;;12.44;100;96048.27;;;;
2019/08/22 02:28:44;;;;;;;3.2;2.95;;;;;;;12.44;100;96048.27;;;;
2019/08/22 02:29:46;;;;;;;3.6;3.15;;;;;;;12.32;100;96029.24;;;;
2019/08/22 02:30:48;;;;;;;3.6;3.15;;;;;;;12.32;100;96029.24;;;;
2019/08/22 02:32:08;;;;;;;3.6;3.15;;;;;;;12.32;100;96029.24;;;;
2019/08/22 02:33:17;;;;;;;3.6;3.15;;;;;;;12.32;100;96029.24;;;;
2019/08/22 02:34:20;;;;;;;3.6;3.15;;;;;;;12.32;100;96029.24;;;;
2019/08/22 02:35:22;;;;;;;3.6;3.15;;;;;;;12.32;100;96029.24;;;;
2019/08/22 02:36:25;;;;;;;3.6;3.15;;;;;;;12.32;100;96029.24;;;;
2019/08/22 02:37:28;;;;;;;3.6;3.15;;;;;;;12.32;100;96029.24;;;;
2019/08/22 02:38:32;;;;;;;3.6;3.15;;;;;;;12.32;100;96029.24;;;;
2019/08/22 02:39:34;;;;;;;3.8;2.8;;;;;;;12.13;100;96041.16;;;;
2019/08/22 02:40:36;;;;;;;3.8;2.8;;;;;;;12.13;100;96041.16;;;;
2019/08/22 02:41:38;;;;;;;3.8;2.8;;;;;;;12.13;100;96041.16;;;;
2019/08/22 02:42:40;;;;;;;3.8;2.8;;;;;;;12.13;100;96041.16;;;;
2019/08/22 02:43:42;;;;;;;3.8;2.8;;;;;;;12.13;100;96041.16;;;;
2019/08/22 02:44:43;;;;;;;3.8;2.8;;;;;;;12.13;100;96041.16;;;;
2019/08/22 02:45:45;;;;;;;3.8;2.8;;;;;;;12.13;100;96041.16;;;;
2019/08/22 02:46:47;;;;;;;3.8;2.8;;;;;;;12.13;100;96041.16;;;;
2019/08/22 02:47:48;;;;;;;3.8;2.8;;;;;;;12.13;100;96041.16;;;;
2019/08/22 02:48:51;;;;;;;3.8;2.8;;;;;;;12.13;100;96041.16;;;;
2019/08/22 02:49:53;;;;;;;3.8;2.8;;;;;;;12.13;100;96041.16;;;;
2019/08/22 02:50:54;;;;;;;4.400001;3.25;;;;;;;11.98;100;96046.67;;;;
2019/08/22 02:51:57;;;;;;;4.400001;3.25;;;;;;;11.98;100;96046.67;;;;
2019/08/22 02:52:58;;;;;;;4.400001;3.25;;;;;;;11.98;100;96046.67;;;;
2019/08/22 02:54:00;;;;;;;4.400001;3.25;;;;;;;11.98;100;96046.67;;;;
2019/08/22 02:55:02;;;;;;;4.400001;3.25;;;;;;;11.98;100;96046.67;;;;
2019/08/22 02:56:05;;;;;;;4.400001;3.25;;;;;;;11.98;100;96046.67;;;;
2019/08/22 02:57:24;;;;;;;4.400001;3.25;;;;;;;11.98;100;96046.67;;;;
2019/08/22 02:58:25;;;;;;;4.400001;3.25;;;;;;;11.98;100;96046.67;;;;
2019/08/22 02:59:27;;;;;;;4.400001;3.25;;;;;;;11.98;100;96046.67;;;;
2019/08/22 03:00:29;;;;;;;4.400001;3.25;;;;;;;11.98;100;96046.67;;;;
2019/08/22 03:01:31;;;;;;;3.85;3.5;;;;;;;11.79;100;96035;;;;
2019/08/22 03:02:33;;;;;;;3.85;3.5;;;;;;;11.79;100;96035;;;;
2019/08/22 03:03:35;;;;;;;3.85;3.5;;;;;;;11.79;100;96035;;;;
2019/08/22 03:04:37;;;;;;;3.85;3.5;;;;;;;11.79;100;96035;;;;
2019/08/22 03:05:39;;;;;;;3.85;3.5;;;;;;;11.79;100;96035;;;;
2019/08/22 03:06:41;;;;;;;3.85;3.5;;;;;;;11.79;100;96035;;;;
2019/08/22 03:07:43;;;;;;;3.85;3.5;;;;;;;11.79;100;96035;;;;
2019/08/22 03:08:45;;;;;;;3.85;3.5;;;;;;;11.79;100;96035;;;;
2019/08/22 03:09:46;;;;;;;3.85;3.5;;;;;;;11.79;100;96035;;;;
2019/08/22 03:10:50;;;;;;;3.85;3.5;;;;;;;11.79;100;96035;;;;
2019/08/22 03:11:52;;;;;;;4.150001;3.6;;;;;;;11.74;100;96030.38;;;;
2019/08/22 03:12:54;;;;;;;4.150001;3.6;;;;;;;11.74;100;96030.38;;;;
2019/08/22 03:13:56;;;;;;;4.150001;3.6;;;;;;;11.74;100;96030.38;;;;
2019/08/22 03:14:58;;;;;;;4.150001;3.6;;;;;;;11.74;100;96030.38;;;;
2019/08/22 03:16:00;;;;;;;4.150001;3.6;;;;;;;11.74;100;96030.38;;;;
2019/08/22 03:17:03;;;;;;;4.150001;3.6;;;;;;;11.74;100;96030.38;;;;
2019/08/22 03:18:05;;;;;;;4.150001;3.6;;;;;;;11.74;100;96030.38;;;;
2019/08/22 03:19:08;;;;;;;4.150001;3.6;;;;;;;11.74;100;96030.38;;;;
2019/08/22 03:20:10;;;;;;;4.150001;3.6;;;;;;;11.74;100;96030.38;;;;
2019/08/22 03:21:15;;;;;;;4.150001;3.6;;;;;;;11.74;100;96030.38;;;;
2019/08/22 03:22:18;;;;;;;4.599999;4.2;;;;;;;11.65;100;96025.38;;;;
2019/08/22 03:23:20;;;;;;;4.599999;4.2;;;;;;;11.65;100;96025.38;;;;
2019/08/22 03:24:22;;;;;;;4.599999;4.2;;;;;;;11.65;100;96025.38;;;;
2019/08/22 03:25:24;;;;;;;4.599999;4.2;;;;;;;11.65;100;96025.38;;;;
2019/08/22 03:26:25;;;;;;;4.599999;4.2;;;;;;;11.65;100;96025.38;;;;
2019/08/22 03:27:27;;;;;;;4.599999;4.2;;;;;;;11.65;100;96025.38;;;;
2019/08/22 03:28:29;;;;;;;4.599999;4.2;;;;;;;11.65;100;96025.38;;;;
2019/08/22 03:29:31;;;;;;;4.599999;4.2;;;;;;;11.65;100;96025.38;;;;
2019/08/22 03:30:33;;;;;;;4.599999;4.2;;;;;;;11.65;100;96025.38;;;;
2019/08/22 03:31:34;;;;;;;4.599999;4.2;;;;;;;11.65;100;96025.38;;;;
2019/08/22 03:32:36;;;;;;;4.75;3.900001;;;;;;;11.63;100;96024.33;;;;
2019/08/22 03:33:39;;;;;;;4.75;3.900001;;;;;;;11.63;100;96024.33;;;;
2019/08/22 03:34:40;;;;;;;4.75;3.900001;;;;;;;11.63;100;96024.33;;;;
2019/08/22 03:35:42;;;;;;;4.75;3.900001;;;;;;;11.63;100;96024.33;;;;
2019/08/22 03:36:44;;;;;;;4.75;3.900001;;;;;;;11.63;100;96024.33;;;;
2019/08/22 03:37:46;;;;;;;4.75;3.900001;;;;;;;11.63;100;96024.33;;;;
2019/08/22 03:38:48;;;;;;;4.75;3.900001;;;;;;;11.63;100;96024.33;;;;
2019/08/22 03:39:50;;;;;;;4.75;3.900001;;;;;;;11.63;100;96024.33;;;;
2019/08/22 03:40:52;;;;;;;4.75;3.900001;;;;;;;11.63;100;96024.33;;;;
2019/08/22 03:42:08;;;;;;;4.75;3.900001;;;;;;;11.63;100;96024.33;;;;
2019/08/22 03:43:24;;;;;;;4.7;3.95;;;;;;;11.53;100;96028.09;;;;
2019/08/22 03:44:26;;;;;;;4.7;3.95;;;;;;;11.53;100;96028.09;;;;
2019/08/22 03:45:28;;;;;;;4.7;3.95;;;;;;;11.53;100;96028.09;;;;
2019/08/22 03:46:29;;;;;;;4.7;3.95;;;;;;;11.53;100;96028.09;;;;
2019/08/22 03:47:31;;;;;;;4.7;3.95;;;;;;;11.53;100;96028.09;;;;
2019/08/22 03:48:33;;;;;;;4.7;3.95;;;;;;;11.53;100;96028.09;;;;
2019/08/22 03:49:35;;;;;;;4.7;3.95;;;;;;;11.53;100;96028.09;;;;
2019/08/22 03:50:38;;;;;;;4.7;3.95;;;;;;;11.53;100;96028.09;;;;
2019/08/22 03:51:41;;;;;;;4.7;3.95;;;;;;;11.53;100;96028.09;;;;
2019/08/22 03:52:42;;;;;;;4.7;3.95;;;;;;;11.53;100;96028.09;;;;
2019/08/22 03:53:44;;;;;;;5.05;4.550001;;;;;;;11.49;100;96032.7;;;;
2019/08/22 03:54:45;;;;;;;5.05;4.550001;;;;;;;11.49;100;96032.7;;;;
2019/08/22 03:55:47;;;;;;;5.05;4.550001;;;;;;;11.49;100;96032.7;;;;
2019/08/22 03:56:49;;;;;;;5.05;4.550001;;;;;;;11.49;100;96032.7;;;;
2019/08/22 03:57:51;;;;;;;5.05;4.550001;;;;;;;11.49;100;96032.7;;;;
2019/08/22 03:58:52;;;;;;;5.05;4.550001;;;;;;;11.49;100;96032.7;;;;
2019/08/22 03:59:54;;;;;;;5.05;4.550001;;;;;;;11.49;100;96032.7;;;;
2019/08/22 04:00:55;;;;;;;5.05;4.550001;;;;;;;11.49;100;96032.7;;;;
2019/08/22 04:02:09;;;;;;;5.05;4.550001;;;;;;;11.49;100;96032.7;;;;
2019/08/22 04:03:13;;;;;;;5.05;4.550001;;;;;;;11.49;100;96032.7;;;;
2019/08/22 04:04:14;;;;;;;5.95;4.6;;;;;;;11.42;100;96039.11;;;;
2019/08/22 04:05:16;;;;;;;5.95;4.6;;;;;;;11.42;100;96039.11;;;;
2019/08/22 04:06:18;;;;;;;5.95;4.6;;;;;;;11.42;100;96039.11;;;;
2019/08/22 04:07:20;;;;;;;5.95;4.6;;;;;;;11.42;100;96039.11;;;;
2019/08/22 04:08:21;;;;;;;5.95;4.6;;;;;;;11.42;100;96039.11;;;;
2019/08/22 04:09:23;;;;;;;5.95;4.6;;;;;;;11.42;100;96039.11;;;;
2019/08/22 04:10:25;;;;;;;5.95;4.6;;;;;;;11.42;100;96039.11;;;;
2019/08/22 04:11:27;;;;;;;5.95;4.6;;;;;;;11.42;100;96039.11;;;;
2019/08/22 04:12:29;;;;;;;5.95;4.6;;;;;;;11.42;100;96039.11;;;;
2019/08/22 04:13:31;;;;;;;5.95;4.6;;;;;;;11.42;100;96039.11;;;;
2019/08/22 04:14:33;;;;;;;5.95;4.6;;;;;;;11.42;100;96039.11;;;;
2019/08/22 04:15:35;;;;;;;5.45;4.65;;;;;;;11.43;100;96048.03;;;;
2019/08/22 04:16:36;;;;;;;5.45;4.65;;;;;;;11.43;100;96048.03;;;;
2019/08/22 04:17:38;;;;;;;5.45;4.65;;;;;;;11.43;100;96048.03;;;;
2019/08/22 04:18:39;;;;;;;5.45;4.65;;;;;;;11.43;100;96048.03;;;;
2019/08/22 04:19:41;;;;;;;5.45;4.65;;;;;;;11.43;100;96048.03;;;;
2019/08/22 04:20:42;;;;;;;5.45;4.65;;;;;;;11.43;100;96048.03;;;;
2019/08/22 04:21:44;;;;;;;5.45;4.65;;;;;;;11.43;100;96048.03;;;;
2019/08/22 04:22:46;;;;;;;5.45;4.65;;;;;;;11.43;100;96048.03;;;;
2019/08/22 04:23:48;;;;;;;5.45;4.65;;;;;;;11.43;100;96048.03;;;;
2019/08/22 04:24:50;;;;;;;5.45;4.65;;;;;;;11.43;100;96048.03;;;;
2019/08/22 04:25:52;;;;;;;5.45;4.85;;;;;;;11.42;100;96045.87;;;;
2019/08/22 04:26:53;;;;;;;5.45;4.85;;;;;;;11.42;100;96045.87;;;;
2019/08/22 04:27:56;;;;;;;5.45;4.85;;;;;;;11.42;100;96045.87;;;;
2019/08/22 04:28:57;;;;;;;5.45;4.85;;;;;;;11.42;100;96045.87;;;;
2019/08/22 04:29:59;;;;;;;5.45;4.85;;;;;;;11.42;100;96045.87;;;;
2019/08/22 04:31:00;;;;;;;5.45;4.85;;;;;;;11.42;100;96045.87;;;;
2019/08/22 04:32:15;;;;;;;5.45;4.85;;;;;;;11.42;100;96045.87;;;;
2019/08/22 04:33:27;;;;;;;5.45;4.85;;;;;;;11.42;100;96045.87;;;;
2019/08/22 04:34:29;;;;;;;5.45;4.85;;;;;;;11.42;100;96045.87;;;;
2019/08/22 04:35:31;;;;;;;5.45;4.85;;;;;;;11.42;100;96045.87;;;;
2019/08/22 04:36:32;;;;;;;6.1;5.199999;;;;;;;11.51;100;96037.75;;;;
2019/08/22 04:37:34;;;;;;;6.1;5.199999;;;;;;;11.51;100;96037.75;;;;
2019/08/22 04:38:35;;;;;;;6.1;5.199999;;;;;;;11.51;100;96037.75;;;;
2019/08/22 04:39:37;;;;;;;6.1;5.199999;;;;;;;11.51;100;96037.75;;;;
2019/08/22 04:40:39;;;;;;;6.1;5.199999;;;;;;;11.51;100;96037.75;;;;
2019/08/22 04:41:43;;;;;;;6.1;5.199999;;;;;;;11.51;100;96037.75;;;;
2019/08/22 04:42:45;;;;;;;6.1;5.199999;;;;;;;11.51;100;96037.75;;;;
2019/08/22 04:43:46;;;;;;;6.1;5.199999;;;;;;;11.51;100;96037.75;;;;
2019/08/22 04:44:48;;;;;;;6.1;5.199999;;;;;;;11.51;100;96037.75;;;;
2019/08/22 04:45:49;;;;;;;6.1;5.199999;;;;;;;11.51;100;96037.75;;;;
2019/08/22 04:46:50;;;;;;;9.299999;7.15;;;;;;;11.6;100;96044.94;;;;
2019/08/22 04:47:52;;;;;;;9.299999;7.15;;;;;;;11.6;100;96044.94;;;;
2019/08/22 04:48:53;;;;;;;9.299999;7.15;;;;;;;11.6;100;96044.94;;;;
2019/08/22 04:49:55;;;;;;;9.299999;7.15;;;;;;;11.6;100;96044.94;;;;
2019/08/22 04:50:56;;;;;;;9.299999;7.15;;;;;;;11.6;100;96044.94;;;;
2019/08/22 04:52:06;;;;;;;9.299999;7.15;;;;;;;11.6;100;96044.94;;;;
2019/08/22 04:53:07;;;;;;;9.299999;7.15;;;;;;;11.6;100;96044.94;;;;
2019/08/22 04:54:09;;;;;;;9.299999;7.15;;;;;;;11.6;100;96044.94;;;;
2019/08/22 04:55:10;;;;;;;9.299999;7.15;;;;;;;11.6;100;96044.94;;;;
2019/08/22 04:56:13;;;;;;;9.299999;7.15;;;;;;;11.6;100;96044.94;;;;
2019/08/22 04:57:15;;;;;;;8.799999;7.050001;;;;;;;11.85;100;96060.35;;;;
2019/08/22 04:58:16;;;;;;;8.799999;7.050001;;;;;;;11.85;100;96060.35;;;;
2019/08/22 04:59:17;;;;;;;8.799999;7.050001;;;;;;;11.85;100;96060.35;;;;
2019/08/22 05:00:19;;;;;;;8.799999;7.050001;;;;;;;11.85;100;96060.35;;;;
2019/08/22 05:01:21;;;;;;;8.799999;7.050001;;;;;;;11.85;100;96060.35;;;;
2019/08/22 05:02:22;;;;;;;8.799999;7.050001;;;;;;;11.85;100;96060.35;;;;
2019/08/22 05:03:23;;;;;;;8.799999;7.050001;;;;;;;11.85;100;96060.35;;;;
2019/08/22 05:09:33;;;;;;;10.25;8.500001;;;;;;;12.08;100;96072.16;;;;
2019/08/22 05:10:34;;;;;;;10.25;8.500001;;;;;;;12.08;100;96072.16;;;;
2019/08/22 05:11:39;;;;;;;10.25;8.500001;;;;;;;12.08;100;96072.16;;;;
2019/08/22 05:12:41;;;;;;;10.25;8.500001;;;;;;;12.08;100;96072.16;;;;
2019/08/22 05:13:42;;;;;;;10.25;8.500001;;;;;;;12.08;100;96072.16;;;;
2019/08/22 05:14:43;;;;;;;10.25;8.500001;;;;;;;12.08;100;96072.16;;;;
2019/08/22 05:15:44;;;;;;;10.25;8.500001;;;;;;;12.08;100;96072.16;;;;
2019/08/22 05:16:46;;;;;;;10.25;8.500001;;;;;;;12.08;100;96072.16;;;;
2019/08/22 05:17:47;;;;;;;10.25;8.500001;;;;;;;12.08;100;96072.16;;;;
2019/08/22 05:18:49;;;;;;;11.9;8.050001;;;;;;;12.41;100;96071.2;;;;
2019/08/22 05:19:50;;;;;;;11.9;8.050001;;;;;;;12.41;100;96071.2;;;;
2019/08/22 05:20:51;;;;;;;11.9;8.050001;;;;;;;12.41;100;96071.2;;;;
2019/08/22 05:21:52;;;;;;;11.9;8.050001;;;;;;;12.41;100;96071.2;;;;
2019/08/22 05:22:53;;;;;;;11.9;8.050001;;;;;;;12.41;100;96071.2;;;;
2019/08/22 05:23:55;;;;;;;11.9;8.050001;;;;;;;12.41;100;96071.2;;;;
2019/08/22 05:24:56;;;;;;;11.9;8.050001;;;;;;;12.41;100;96071.2;;;;
2019/08/22 05:25:57;;;;;;;11.9;8.050001;;;;;;;12.41;100;96071.2;;;;
2019/08/22 05:27:07;;;;;;;11.9;8.050001;;;;;;;12.41;100;96071.2;;;;
2019/08/22 05:28:08;;;;;;;11.9;8.050001;;;;;;;12.41;100;96071.2;;;;
2019/08/22 05:29:09;;;;;;;7.8;6;;;;;;;12.72;100;96078.85;;;;
2019/08/22 05:30:10;;;;;;;7.8;6;;;;;;;12.72;100;96078.85;;;;
2019/08/22 05:31:13;;;;;;;7.8;6;;;;;;;12.72;100;96078.85;;;;
2019/08/22 05:32:15;;;;;;;7.8;6;;;;;;;12.72;100;96078.85;;;;
2019/08/22 05:33:16;;;;;;;7.8;6;;;;;;;12.72;100;96078.85;;;;
2019/08/22 05:34:17;;;;;;;7.8;6;;;;;;;12.72;100;96078.85;;;;
2019/08/22 05:35:18;;;;;;;7.8;6;;;;;;;12.72;100;96078.85;;;;
2019/08/22 05:36:20;;;;;;;7.8;6;;;;;;;12.72;100;96078.85;;;;
2019/08/22 05:37:21;;;;;;;7.8;6;;;;;;;12.72;100;96078.85;;;;
2019/08/22 05:38:22;;;;;;;7.8;6;;;;;;;12.72;100;96078.85;;;;
2019/08/22 05:39:24;;;;;;;7.8;6;;;;;;;12.72;100;96078.85;;;;
2019/08/22 05:40:25;;;;;;;9.649998;7.4;;;;;;;13.13;100;96082.95;;;;
2019/08/22 05:41:45;;;;;;;9.649998;7.4;;;;;;;13.13;100;96082.95;;;;
2019/08/22 05:42:46;;;;;;;9.649998;7.4;;;;;;;13.13;100;96082.95;;;;
2019/08/22 05:43:47;;;;;;;9.649998;7.4;;;;;;;13.13;100;96082.95;;;;
2019/08/22 05:44:49;;;;;;;9.649998;7.4;;;;;;;13.13;100;96082.95;;;;
2019/08/22 05:45:50;;;;;;;9.649998;7.4;;;;;;;13.13;100;96082.95;;;;
2019/08/22 05:46:51;;;;;;;9.649998;7.4;;;;;;;13.13;100;96082.95;;;;
2019/08/22 05:47:52;;;;;;;9.649998;7.4;;;;;;;13.13;100;96082.95;;;;
2019/08/22 05:48:53;;;;;;;9.649998;7.4;;;;;;;13.13;100;96082.95;;;;
2019/08/22 05:49:55;;;;;;;9.649998;7.4;;;;;;;13.13;100;96082.95;;;;
2019/08/22 05:50:56;;;;;;;15.15;11;;;;;;;13.64;100;96088.05;;;;
2019/08/22 05:51:58;;;;;;;15.15;11;;;;;;;13.64;100;96088.05;;;;
2019/08/22 05:52:59;;;;;;;15.15;11;;;;;;;13.64;100;96088.05;;;;
2019/08/22 05:54:00;;;;;;;15.15;11;;;;;;;13.64;100;96088.05;;;;
2019/08/22 05:55:02;;;;;;;15.15;11;;;;;;;13.64;100;96088.05;;;;
2019/08/22 05:56:06;;;;;;;15.15;11;;;;;;;13.64;100;96088.05;;;;
2019/08/22 05:57:08;;;;;;;15.15;11;;;;;;;13.64;100;96088.05;;;;
2019/08/22 05:58:10;;;;;;;15.15;11;;;;;;;13.64;100;96088.05;;;;
2019/08/22 05:59:11;;;;;;;15.15;11;;;;;;;13.64;100;96088.05;;;;
2019/08/22 06:00:12;;;;;;;15.15;11;;;;;;;13.64;100;96088.05;;;;
2019/08/22 06:01:17;;;;;;;15.65;12.8;;;;;;;14.34;100;96066.69;;;;
2019/08/22 06:02:18;;;;;;;15.65;12.8;;;;;;;14.34;100;96066.69;;;;
2019/08/22 06:03:19;;;;;;;15.65;12.8;;;;;;;14.34;100;96066.69;;;;
2019/08/22 06:04:20;;;;;;;15.65;12.8;;;;;;;14.34;100;96066.69;;;;
2019/08/22 06:05:21;;;;;;;15.65;12.8;;;;;;;14.34;100;96066.69;;;;
2019/08/22 06:06:23;;;;;;;15.65;12.8;;;;;;;14.34;100;96066.69;;;;
2019/08/22 06:07:24;;;;;;;15.65;12.8;;;;;;;14.34;100;96066.69;;;;
2019/08/22 06:08:25;;;;;;;15.65;12.8;;;;;;;14.34;100;96066.69;;;;
2019/08/22 06:09:26;;;;;;;15.65;12.8;;;;;;;14.34;100;96066.69;;;;
2019/08/22 06:10:28;;;;;;;15.65;12.8;;;;;;;14.34;100;96066.69;;;;
2019/08/22 06:11:30;;;;;;;18.45;14.1;;;;;;;14.94;100;96079.32;;;;
2019/08/22 06:12:31;;;;;;;18.45;14.1;;;;;;;14.94;100;96079.32;;;;
2019/08/22 06:13:32;;;;;;;18.45;14.1;;;;;;;14.94;100;96079.32;;;;
2019/08/22 06:14:33;;;;;;;18.45;14.1;;;;;;;14.94;100;96079.32;;;;
2019/08/22 06:15:35;;;;;;;18.45;14.1;;;;;;;14.94;100;96079.32;;;;
2019/08/22 06:16:43;;;;;;;18.45;14.1;;;;;;;14.94;100;96079.32;;;;
2019/08/22 06:17:44;;;;;;;18.45;14.1;;;;;;;14.94;100;96079.32;;;;
2019/08/22 06:18:45;;;;;;;18.45;14.1;;;;;;;14.94;100;96079.32;;;;
2019/08/22 06:19:47;;;;;;;18.45;14.1;;;;;;;14.94;100;96079.32;;;;
2019/08/22 06:20:48;;;;;;;18.45;14.1;;;;;;;14.94;100;96079.32;;;;
2019/08/22 06:21:49;;;;;;;18.45;14.1;;;;;;;14.94;100;96079.32;;;;
2019/08/22 06:22:50;;;;;;;18.5;15.5;;;;;;;15.5;100;96081.05;;;;
2019/08/22 06:23:51;;;;;;;18.5;15.5;;;;;;;15.5;100;96081.05;;;;
2019/08/22 06:24:53;;;;;;;18.5;15.5;;;;;;;15.5;100;96081.05;;;;
2019/08/22 06:25:54;;;;;;;18.5;15.5;;;;;;;15.5;100;96081.05;;;;
2019/08/22 06:26:55;;;;;;;18.5;15.5;;;;;;;15.5;100;96081.05;;;;
2019/08/22 06:27:56;;;;;;;18.5;15.5;;;;;;;15.5;100;96081.05;;;;